Latest Weather Observations for Fort Denison

IDN60801

Issued at 9:35 am EST Wednesday 1 October 2014 (issued every 30 minutes, with the page automatically refreshed every 10 minutes)

About weather observations | Map of weather stations | Latest weather observations for NSW | Other Formats
Station Details ID: 066022 Name: FORT DENISON Lat: -33.86 Lon: 151.23 Height: 5.0 m
Data from the previous 72 hours. | See also: Recent months for locations in New South Wales
Date/Time
EST
Temp
°C
App
Temp
°C
Dew
Point
Rel
Hum
%
Delta-T
°C
Wind Press
QNH
hPa
Press
MSL
hPa
Rain
since 9 am
mm
Dir
 
Spd
km/h
Gust
km/h
Spd
kts
Gust
kts
01/09:30am - - - - - SSW 17 26 9 14 - - -
01/09:01am - - - - - W 30 48 16 26 - - -
01/09:00am - - - - - W 28 44 15 24 - - -
01/08:43am - - - - - WSW 28 46 15 25 - - -
01/08:30am - - - - - WSW 26 39 14 21 - - -
01/08:00am - - - - - W 28 41 15 22 - - -
01/07:30am - - - - - SSW 26 48 14 26 - - -
01/07:00am - - - - - WSW 32 61 17 33 - - -
01/06:49am - - - - - WSW 32 54 17 29 - - -
01/06:30am - - - - - WSW 32 46 17 25 - - -
01/06:15am - - - - - SW 28 46 15 25 - - -
01/06:00am - - - - - SW 33 50 18 27 - - -
01/05:30am - - - - - SW 30 52 16 28 - - -
01/05:00am - - - - - WSW 30 52 16 28 - - -
01/04:53am - - - - - WSW 28 52 15 28 - - -
01/04:30am - - - - - WSW 22 44 12 24 - - -
01/04:00am - - - - - SSW 24 41 13 22 - - -
01/03:30am - - - - - SSW 24 41 13 22 - - -
01/03:02am - - - - - SSW 30 48 16 26 - - -
01/03:00am - - - - - SSW 32 48 17 26 - - -
01/02:36am - - - - - SW 28 57 15 31 - - -
01/02:30am - - - - - SW 20 52 11 28 - - -
01/02:00am - - - - - WSW 17 24 9 13 - - -
01/01:30am - - - - - WNW 17 19 9 10 - - -
01/01:00am - - - - - WNW 15 22 8 12 - - -
01/12:30am - - - - - W 15 20 8 11 - - -
01/12:00am - - - - - NW 19 26 10 14 - - -
 
Date/Time
EST
Temp
°C
App
Temp
°C
Dew
Point
Rel
Hum
%
Delta-T
°C
Wind Press
QNH
hPa
Press
MSL
hPa
Rain
since 9 am
mm
Dir
 
Spd
km/h
Gust
km/h
Spd
kts
Gust
kts
30/11:30pm - - - - - NW 20 30 11 16 - - -
30/11:00pm - - - - - WNW 20 32 11 17 - - -
30/10:30pm - - - - - W 6 11 3 6 - - -
30/10:00pm - - - - - ESE 7 11 4 6 - - -
30/09:30pm - - - - - N 13 17 7 9 - - -
30/09:00pm - - - - - NNW 17 20 9 11 - - -
30/08:30pm - - - - - NNW 13 19 7 10 - - -
30/08:00pm - - - - - NNW 22 28 12 15 - - -
30/07:30pm - - - - - NW 15 20 8 11 - - -
30/07:00pm - - - - - NW 20 30 11 16 - - -
30/06:30pm - - - - - NW 20 33 11 18 - - -
30/06:00pm - - - - - NW 19 28 10 15 - - -
30/05:30pm - - - - - NW 20 35 11 19 - - -
30/05:00pm - - - - - NW 26 43 14 23 - - -
30/04:38pm - - - - - NW 30 48 16 26 - - -
30/04:30pm - - - - - NW 28 41 15 22 - - -
30/04:03pm - - - - - NW 28 46 15 25 - - -
30/04:00pm - - - - - NW 30 46 16 25 - - -
30/03:30pm - - - - - NW 30 48 16 26 - - -
30/03:13pm - - - - - NW 30 52 16 28 - - -
30/03:00pm - - - - - NW 26 41 14 22 - - -
30/02:43pm - - - - - NNW 28 48 15 26 - - -
30/02:42pm - - - - - NNW 28 43 15 23 - - -
30/02:30pm - - - - - NNE 17 24 9 13 - - -
30/02:00pm - - - - - NE 19 26 10 14 - - -
30/01:30pm - - - - - NE 20 28 11 15 - - -
30/01:00pm - - - - - NE 19 28 10 15 - - -
30/12:30pm - - - - - N 20 28 11 15 - - -
30/12:00pm - - - - - N 22 30 12 16 - - -
30/11:30am - - - - - N 19 26 10 14 - - -
30/11:00am - - - - - NNW 20 28 11 15 - - -
30/10:30am - - - - - NNW 22 35 12 19 - - -
30/10:00am - - - - - NNW 24 35 13 19 - - -
30/09:30am - - - - - NNE 4 9 2 5 - - -
30/09:00am - - - - - SE 2 6 1 3 - - -
30/08:30am - - - - - ESE 6 6 3 3 - - -
30/08:00am - - - - - SE 4 6 2 3 - - -
30/07:30am - - - - - NE 2 6 1 3 - - -
30/07:00am - - - - - WNW 7 9 4 5 - - -
30/06:30am - - - - - W 6 7 3 4 - - -
30/06:00am - - - - - NNW 4 4 2 2 - - -
30/05:30am - - - - - N 4 6 2 3 - - -
30/05:00am - - - - - W 9 11 5 6 - - -
30/04:30am - - - - - WSW 2 2 1 1 - - -
30/04:00am - - - - - E 2 4 1 2 - - -
30/03:30am - - - - - N 2 4 1 2 - - -
30/03:00am - - - - - E 4 4 2 2 - - -
30/02:30am - - - - - E 4 6 2 3 - - -
30/02:00am - - - - - ENE 4 4 2 2 - - -
30/01:30am - - - - - N 4 4 2 2 - - -
30/01:00am - - - - - NNE 4 6 2 3 - - -
30/12:30am - - - - - NE 2 4 1 2 - - -
30/12:00am - - - - - NE 2 2 1 1 - - -
 
Date/Time
EST
Temp
°C
App
Temp
°C
Dew
Point
Rel
Hum
%
Delta-T
°C
Wind Press
QNH
hPa
Press
MSL
hPa
Rain
since 9 am
mm
Dir
 
Spd
km/h
Gust
km/h
Spd
kts
Gust
kts
29/11:30pm - - - - - ENE 6 7 3 4 - - -
29/11:00pm - - - - - E 6 9 3 5 - - -
29/10:30pm - - - - - ESE 4 11 2 6 - - -
29/10:00pm - - - - - CALM 0 2 0 1 - - -
29/09:30pm - - - - - SSW 4 4 2 2 - - -
29/09:00pm - - - - - S 9 15 5 8 - - -
29/08:30pm - - - - - S 9 17 5 9 - - -
29/08:00pm - - - - - SE 17 22 9 12 - - -
29/07:30pm - - - - - S 20 32 11 17 - - -
29/07:00pm - - - - - ESE 7 9 4 5 - - -
29/06:30pm - - - - - WNW 6 7 3 4 - - -
29/06:00pm - - - - - WNW 9 13 5 7 - - -
29/05:30pm - - - - - W 17 22 9 12 - - -
29/05:00pm - - - - - WNW 22 32 12 17 - - -
29/04:30pm - - - - - WNW 20 30 11 16 - - -
29/04:00pm - - - - - W 15 19 8 10 - - -
29/03:30pm - - - - - W 17 22 9 12 - - -
29/03:00pm - - - - - WNW 15 22 8 12 - - -
29/02:30pm - - - - - WNW 17 24 9 13 - - -
29/02:00pm - - - - - W 15 22 8 12 - - -
29/01:30pm - - - - - WNW 19 30 10 16 - - -
29/01:00pm - - - - - W 11 19 6 10 - - -
29/12:30pm - - - - - W 9 13 5 7 - - -
29/12:00pm - - - - - W 13 17 7 9 - - -
29/11:30am - - - - - E 2 7 1 4 - - -
29/11:00am - - - - - E 7 11 4 6 - - -
29/10:30am - - - - - N 6 9 3 5 - - -
29/10:00am - - - - - NNE 13 20 7 11 - - -
29/09:30am - - - - - N 15 22 8 12 - - -
29/09:00am - - - - - N 17 24 9 13 - - -
29/08:30am - - - - - NNW 22 28 12 15 - - -
29/08:00am - - - - - NNW 22 32 12 17 - - -
29/07:30am - - - - - NNW 24 33 13 18 - - -
29/07:00am - - - - - NNW 24 32 13 17 - - -
29/06:30am - - - - - NNW 26 32 14 17 - - -
29/06:00am - - - - - NNW 26 32 14 17 - - -
29/05:30am - - - - - NNW 20 32 11 17 - - -
29/05:00am - - - - - NW 17 22 9 12 - - -
29/04:30am - - - - - NW 15 22 8 12 - - -
29/04:00am - - - - - NNW 6 11 3 6 - - -
29/03:30am - - - - - NW 15 28 8 15 - - -
29/03:00am - - - - - NNW 19 24 10 13 - - -
29/02:30am - - - - - NNW 19 24 10 13 - - -
29/02:00am - - - - - N 2 4 1 2 - - -
29/01:30am - - - - - ESE 6 9 3 5 - - -
29/01:00am - - - - - ESE 2 6 1 3 - - -
29/12:30am - - - - - N 2 6 1 3 - - -
29/12:00am - - - - - ENE 7 11 4 6 - - -
 
Date/Time
EST
Temp
°C
App
Temp
°C
Dew
Point
Rel
Hum
%
Delta-T
°C
Wind Press
QNH
hPa
Press
MSL
hPa
Rain
since 9 am
mm
Dir
 
Spd
km/h
Gust
km/h
Spd
kts
Gust
kts
28/11:30pm - - - - - E 6 7 3 4 - - -
28/11:00pm - - - - - E 7 11 4 6 - - -
28/10:30pm - - - - - ENE 2 6 1 3 - - -
28/10:00pm - - - - - ENE 4 9 2 5 - - -
28/09:30pm - - - - - NNE 13 19 7 10 - - -
28/09:00pm - - - - - N 19 28 10 15 - - -
28/08:30pm - - - - - NNE 20 26 11 14 - - -
28/08:00pm - - - - - NNE 30 39 16 21 - - -
28/07:30pm - - - - - NNE 30 39 16 21 - - -
28/07:00pm - - - - - NNE 33 44 18 24 - - -
28/06:30pm - - - - - NNE 32 50 17 27 - - -
28/06:00pm - - - - - NNE 30 41 16 22 - - -
28/05:30pm - - - - - NNE 30 39 16 21 - - -
28/05:00pm - - - - - NE 24 39 13 21 - - -
28/04:30pm - - - - - NE 24 41 13 22 - - -
28/04:00pm - - - - - NNE 26 37 14 20 - - -
28/03:30pm - - - - - NE 24 39 13 21 - - -
28/03:00pm - - - - - NE 24 39 13 21 - - -
28/02:30pm - - - - - NE 24 37 13 20 - - -
28/02:00pm - - - - - NE 24 39 13 21 - - -
28/01:30pm - - - - - NE 26 35 14 19 - - -
28/01:00pm - - - - - NE 24 33 13 18 - - -
28/12:30pm - - - - - NE 22 33 12 18 - - -
28/12:00pm - - - - - NE 20 30 11 16 - - -
28/11:30am - - - - - ENE 20 24 11 13 - - -
28/11:00am - - - - - NNW 11 17 6 9 - - -
28/10:30am - - - - - NNW 15 24 8 13 - - -
28/10:00am - - - - - NNW 17 20 9 11 - - -

Other Formats:

Comma delimited format used in spreadsheet applications
http://www.bom.gov.au/fwo/IDN60801/IDN60801.94769.axf

JavaScript Object Notation format (JSON) in row-major order
http://www.bom.gov.au/fwo/IDN60801/IDN60801.94769.json